Time;durP1;ratioP1;P1;durP2;ratioP2;P2;SDS_P1;SDS_P2;PMS_P1;PMS_P2;Temp;Humidity;BMP_temperature;BMP_pressure;BME280_temperature;BME280_humidity;BME280_pressure;Samples;Min_cycle;Max_cycle;Signal;HPM_P1;HPM_P2
2022/01/04 00:02:18;;;;;;;9.00;3.17;;;8.40;1.00;;;;;;5013528;28;20180;-74
2022/01/04 00:04:44;;;;;;;9.23;3.23;;;8.40;1.00;;;;;;5013642;28;20588;-74
2022/01/04 00:07:09;;;;;;;5.10;2.90;;;8.40;1.00;;;;;;5013385;28;20172;-74
2022/01/04 00:09:40;;;;;;;4.17;2.97;;;8.40;1.00;;;;;;5012624;28;20161;-74
2022/01/04 00:14:51;;;;;;;12.30;5.40;;;8.40;1.00;;;;;;5014834;28;20481;-73
2022/01/04 00:17:17;;;;;;;7.63;3.33;;;8.40;1.00;;;;;;5017318;28;20984;-74
2022/01/04 00:19:42;;;;;;;3.33;2.83;;;8.40;1.00;;;;;;5016608;28;20630;-74
2022/01/04 00:22:08;;;;;;;11.03;3.07;;;8.40;1.00;;;;;;5017345;28;20187;-73
2022/01/04 00:24:35;;;;;;;8.63;2.70;;;8.30;1.00;;;;;;5017600;28;20161;-73
2022/01/04 00:27:01;;;;;;;4.13;2.50;;;8.40;1.00;;;;;;5016981;28;20513;-74
2022/01/04 00:29:26;;;;;;;12.07;3.00;;;8.40;1.00;;;;;;5016593;28;20407;-74
2022/01/04 00:31:52;;;;;;;5.90;2.60;;;8.40;1.00;;;;;;5016785;28;20196;-74
2022/01/04 00:34:17;;;;;;;6.77;2.90;;;8.30;1.00;;;;;;5017362;28;20169;-74
2022/01/04 00:36:43;;;;;;;9.13;2.90;;;8.30;1.00;;;;;;5016976;28;20218;-74
2022/01/04 00:39:08;;;;;;;7.03;3.70;;;8.30;1.00;;;;;;5016459;28;20262;-73
2022/01/04 00:41:34;;;;;;;9.30;3.27;;;8.30;1.00;;;;;;5016804;28;20196;-75
2022/01/04 00:44:00;;;;;;;12.33;3.20;;;8.20;1.00;;;;;;5017259;28;20238;-74
2022/01/04 00:46:26;;;;;;;5.43;3.20;;;8.20;1.00;;;;;;5016934;28;20172;-73
2022/01/04 00:49:10;;;;;;;4.70;2.13;;;8.20;1.00;;;;;;5016304;28;20256;-74
2022/01/04 00:51:47;;;;;;;5.10;3.40;;;8.20;1.00;;;;;;5016605;28;20509;-74
2022/01/04 00:54:13;;;;;;;6.83;2.40;;;8.20;1.00;;;;;;5017156;28;20489;-74
2022/01/04 00:56:40;;;;;;;11.90;2.60;;;8.30;1.00;;;;;;5016690;28;20455;-74
2022/01/04 00:59:06;;;;;;;2.37;2.20;;;8.30;1.00;;;;;;5016008;28;20403;-74
2022/01/04 01:01:32;;;;;;;11.43;3.00;;;8.20;1.00;;;;;;5016513;28;20525;-74
2022/01/04 01:03:58;;;;;;;8.43;2.80;;;8.20;1.00;;;;;;5016780;28;20545;-74
2022/01/04 01:06:24;;;;;;;2.67;2.10;;;8.20;1.00;;;;;;5016722;28;20415;-74
2022/01/04 01:08:50;;;;;;;4.40;3.47;;;8.20;1.00;;;;;;5015866;28;20195;-75
2022/01/04 01:11:16;;;;;;;13.50;2.83;;;8.20;1.00;;;;;;5016356;28;20850;-74
2022/01/04 01:13:42;;;;;;;4.03;2.60;;;8.20;1.00;;;;;;5016526;28;20403;-75
2022/01/04 01:16:08;;;;;;;7.43;3.10;;;8.20;1.00;;;;;;5016194;28;20458;-75
2022/01/04 01:18:35;;;;;;;10.63;3.40;;;8.20;1.00;;;;;;5015630;28;20499;-76
2022/01/04 01:21:03;;;;;;;2.37;2.20;;;8.20;1.00;;;;;;5016281;28;20463;-74
2022/01/04 01:23:29;;;;;;;5.20;3.57;;;8.20;1.00;;;;;;5016417;28;20807;-74
2022/01/04 01:25:55;;;;;;;11.23;3.43;;;8.20;1.00;;;;;;5015939;28;20911;-75
2022/01/04 01:28:22;;;;;;;4.70;2.80;;;8.20;1.00;;;;;;5016150;28;20407;-77
2022/01/04 01:30:48;;;;;;;12.33;3.30;;;8.20;1.00;;;;;;5015128;28;20442;-74
2022/01/04 01:33:15;;;;;;;12.97;3.60;;;8.20;1.00;;;;;;5016165;28;20426;-74
2022/01/04 01:35:41;;;;;;;14.17;3.83;;;8.20;1.00;;;;;;5016306;28;20509;-74
2022/01/04 01:38:08;;;;;;;6.63;3.13;;;8.20;1.00;;;;;;4998403;28;20818;-74
2022/01/04 01:40:35;;;;;;;8.77;3.30;;;8.20;1.00;;;;;;5015240;28;20477;-74
2022/01/04 01:43:01;;;;;;;7.10;3.20;;;8.20;1.00;;;;;;5015911;28;20856;-74
2022/01/04 01:45:27;;;;;;;15.07;4.33;;;8.10;1.00;;;;;;5016007;28;20442;-74
2022/01/04 01:47:53;;;;;;;8.67;3.47;;;8.20;1.00;;;;;;5016054;28;20398;-74
2022/01/04 01:50:20;;;;;;;11.83;5.83;;;8.20;1.00;;;;;;5014536;28;20447;-74
2022/01/04 01:52:48;;;;;;;7.20;4.37;;;8.20;1.00;;;;;;5016038;28;20172;-73
2022/01/04 01:55:16;;;;;;;5.57;3.50;;;8.20;1.00;;;;;;5015435;28;20458;-74
2022/01/04 01:57:41;;;;;;;3.63;2.70;;;8.30;1.00;;;;;;5015911;28;20856;-73
2022/01/04 02:00:13;;;;;;;7.80;2.73;;;8.30;1.00;;;;;;5014473;28;20439;-74
2022/01/04 02:02:39;;;;;;;5.33;2.60;;;8.30;1.00;;;;;;5015796;28;20180;-74
2022/01/04 02:05:05;;;;;;;12.97;4.17;;;8.30;1.00;;;;;;5015359;28;20938;-75
2022/01/04 02:07:32;;;;;;;13.30;3.10;;;8.30;1.00;;;;;;5015726;28;20413;-74
2022/01/04 02:10:04;;;;;;;13.03;3.70;;;8.30;1.00;;;;;;5014399;28;20482;-74
2022/01/04 02:12:33;;;;;;;12.93;4.33;;;8.30;1.00;;;;;;5015448;28;20490;-75
2022/01/04 02:14:59;;;;;;;4.67;2.87;;;8.30;1.00;;;;;;5015005;28;20490;-74
2022/01/04 02:17:25;;;;;;;8.00;3.20;;;8.30;1.00;;;;;;5015539;28;20403;-74
2022/01/04 02:19:53;;;;;;;11.90;2.93;;;8.30;1.00;;;;;;4996585;28;20951;-74
2022/01/04 02:22:19;;;;;;;7.63;3.83;;;8.30;1.00;;;;;;5015233;28;20453;-75
2022/01/04 02:24:45;;;;;;;5.83;3.90;;;8.20;1.00;;;;;;5014988;28;20807;-74
2022/01/04 02:27:11;;;;;;;10.33;4.50;;;8.30;1.00;;;;;;5015152;28;20218;-73
2022/01/04 02:29:37;;;;;;;9.40;4.00;;;8.30;1.00;;;;;;5013689;28;20176;-75
2022/01/04 02:32:03;;;;;;;6.33;2.90;;;8.30;1.00;;;;;;5015206;28;20399;-74
2022/01/04 02:34:29;;;;;;;14.97;3.47;;;8.30;1.00;;;;;;4997207;28;20180;-75
2022/01/04 02:36:54;;;;;;;6.13;2.97;;;8.30;1.00;;;;;;4997130;28;20459;-74
2022/01/04 02:39:20;;;;;;;5.93;3.33;;;8.20;1.00;;;;;;5013688;28;20173;-74
2022/01/04 02:41:45;;;;;;;7.90;3.30;;;8.20;1.00;;;;;;5015011;28;20196;-74
2022/01/04 02:44:11;;;;;;;2.73;2.53;;;8.20;1.00;;;;;;5014780;28;20633;-74
2022/01/04 02:46:37;;;;;;;9.53;2.60;;;8.10;1.00;;;;;;5014983;28;20251;-75
2022/01/04 02:49:02;;;;;;;12.93;3.63;;;8.00;1.00;;;;;;5013592;28;20637;-73
2022/01/04 02:51:28;;;;;;;4.60;3.40;;;8.00;1.00;;;;;;5002232;28;20259;-74
2022/01/04 02:53:53;;;;;;;3.40;3.10;;;8.00;1.00;;;;;;4995277;28;20177;-74
2022/01/04 02:56:19;;;;;;;5.03;3.23;;;7.90;1.00;;;;;;5000705;28;20283;-74
2022/01/04 02:58:45;;;;;;;8.77;3.90;;;7.90;1.00;;;;;;5013809;28;20605;-75
2022/01/04 03:01:10;;;;;;;4.70;2.90;;;7.90;1.00;;;;;;5014440;28;20583;-75
2022/01/04 03:03:36;;;;;;;8.17;3.77;;;7.90;1.00;;;;;;5014535;28;20176;-74
2022/01/04 03:06:02;;;;;;;10.60;3.90;;;8.00;1.00;;;;;;5014340;28;20621;-74
2022/01/04 03:08:27;;;;;;;16.73;4.30;;;8.00;1.00;;;;;;5014324;28;20176;-76
2022/01/04 03:10:53;;;;;;;8.40;3.07;;;8.00;1.00;;;;;;5013452;28;20661;-74
2022/01/04 03:13:19;;;;;;;4.30;3.10;;;8.00;1.00;;;;;;5014734;28;20695;-74
2022/01/04 03:15:46;;;;;;;12.73;4.73;;;8.00;1.00;;;;;;5014207;28;20203;-74
2022/01/04 03:18:12;;;;;;;8.00;3.97;;;8.00;1.00;;;;;;5014382;28;20172;-74
2022/01/04 03:20:38;;;;;;;6.80;3.70;;;8.00;1.00;;;;;;5013033;28;20442;-74
2022/01/04 03:23:08;;;;;;;13.17;3.70;;;8.00;1.00;;;;;;4996533;28;20411;-74
2022/01/04 03:25:34;;;;;;;12.67;4.57;;;8.00;1.00;;;;;;5013938;28;20656;-74
2022/01/04 03:28:04;;;;;;;7.63;3.47;;;8.00;1.00;;;;;;5014228;28;20935;-74
2022/01/04 03:30:30;;;;;;;6.80;3.83;;;8.00;1.00;;;;;;5012950;28;20443;-74
2022/01/04 03:32:55;;;;;;;14.60;4.70;;;8.00;1.00;;;;;;4996400;28;20503;-75
2022/01/04 03:35:22;;;;;;;6.03;3.50;;;8.10;1.00;;;;;;5013807;28;20546;-74
2022/01/04 03:37:47;;;;;;;3.83;2.90;;;8.10;1.00;;;;;;5014405;28;20172;-75
2022/01/04 03:40:13;;;;;;;14.40;4.10;;;8.10;1.00;;;;;;5012818;28;20435;-74
2022/01/04 03:42:39;;;;;;;6.90;4.93;;;8.10;1.00;;;;;;5014085;28;20503;-74
2022/01/04 03:45:06;;;;;;;6.73;4.50;;;8.10;1.00;;;;;;5013660;28;20210;-75
2022/01/04 03:47:32;;;;;;;15.90;3.57;;;8.10;1.00;;;;;;4996405;28;20415;-74
2022/01/04 03:49:58;;;;;;;12.33;5.00;;;8.10;1.00;;;;;;5011979;28;20950;-74
2022/01/04 03:52:23;;;;;;;6.97;3.67;;;8.10;1.00;;;;;;5013849;28;20427;-74
2022/01/04 03:54:49;;;;;;;3.53;3.23;;;8.10;1.00;;;;;;5013407;28;20187;-75
2022/01/04 03:57:15;;;;;;;3.30;2.70;;;8.00;1.00;;;;;;5013760;28;20629;-74
2022/01/04 03:59:40;;;;;;;8.13;3.63;;;8.00;1.00;;;;;;5012738;28;20629;-75
2022/01/04 04:02:06;;;;;;;8.87;2.73;;;7.90;1.00;;;;;;5013782;28;20171;-75
2022/01/04 04:04:31;;;;;;;7.87;3.67;;;7.90;1.00;;;;;;5013417;28;20176;-74
2022/01/04 04:06:57;;;;;;;10.30;3.97;;;7.90;1.00;;;;;;5013496;28;20176;-74
2022/01/04 04:09:23;;;;;;;8.13;4.10;;;7.90;1.00;;;;;;5012391;28;20246;-74
2022/01/04 04:11:48;;;;;;;7.87;4.40;;;7.90;1.00;;;;;;5013803;28;20303;-74
2022/01/04 04:14:14;;;;;;;11.37;5.20;;;7.90;1.00;;;;;;5013688;28;20510;-74
2022/01/04 04:16:40;;;;;;;8.70;3.73;;;7.90;1.00;;;;;;5013288;28;20211;-74
2022/01/04 04:19:05;;;;;;;8.77;3.40;;;7.90;1.00;;;;;;5012331;28;20165;-75
2022/01/04 04:21:31;;;;;;;10.43;4.33;;;7.90;1.00;;;;;;5013219;28;20696;-75
2022/01/04 04:23:57;;;;;;;5.80;3.30;;;7.90;1.00;;;;;;5013677;28;20169;-74
2022/01/04 04:26:22;;;;;;;6.80;4.50;;;7.90;1.00;;;;;;5013152;28;20211;-74
2022/01/04 04:28:48;;;;;;;13.83;4.70;;;7.80;1.00;;;;;;5012665;28;20172;-75
2022/01/04 04:31:14;;;;;;;14.00;4.53;;;7.90;1.00;;;;;;5013132;28;20246;-75
2022/01/04 04:33:40;;;;;;;18.07;5.43;;;7.90;1.00;;;;;;5013288;28;20490;-75
2022/01/04 04:36:08;;;;;;;10.03;4.50;;;7.90;1.00;;;;;;5013187;28;20322;-74
2022/01/04 04:38:33;;;;;;;8.77;4.60;;;7.90;1.00;;;;;;5012608;28;20169;-76
2022/01/04 04:40:59;;;;;;;10.27;4.47;;;8.00;1.00;;;;;;5013303;28;20514;-74
2022/01/04 04:43:25;;;;;;;12.10;3.60;;;7.90;1.00;;;;;;4996070;28;20529;-74
2022/01/04 04:45:51;;;;;;;14.73;4.70;;;7.90;1.00;;;;;;5013043;28;20180;-74
2022/01/04 04:48:19;;;;;;;11.97;4.27;;;7.90;1.00;;;;;;5013175;28;20172;-74
2022/01/04 04:50:45;;;;;;;16.63;3.90;;;7.90;1.00;;;;;;5012005;28;20266;-74
2022/01/04 04:53:10;;;;;;;8.13;4.47;;;7.90;1.00;;;;;;5013362;28;20403;-74
2022/01/04 04:55:36;;;;;;;7.27;3.93;;;7.80;1.00;;;;;;5012826;28;20192;-75
2022/01/04 04:58:02;;;;;;;7.13;3.43;;;7.90;1.00;;;;;;4995690;28;20552;-74
2022/01/04 05:00:27;;;;;;;8.97;4.63;;;7.90;1.00;;;;;;5012465;28;20192;-75
2022/01/04 05:02:53;;;;;;;13.80;4.37;;;7.90;1.00;;;;;;5017016;28;20168;-74
2022/01/04 05:05:19;;;;;;;6.43;4.20;;;7.90;1.00;;;;;;5016571;28;20664;-75
2022/01/04 05:07:44;;;;;;;11.47;5.07;;;7.90;1.00;;;;;;4999366;28;20188;-75
2022/01/04 05:10:10;;;;;;;7.87;4.00;;;7.90;1.00;;;;;;5015375;28;20196;-74
2022/01/04 05:12:35;;;;;;;9.23;4.53;;;7.90;1.00;;;;;;5016884;28;20226;-74
2022/01/04 05:15:03;;;;;;;15.80;4.47;;;7.90;1.00;;;;;;5016051;28;20204;-73
2022/01/04 05:17:29;;;;;;;12.47;4.43;;;8.00;1.00;;;;;;5016545;28;20643;-74
2022/01/04 05:19:55;;;;;;;9.47;4.17;;;7.90;1.00;;;;;;5015256;28;20443;-74
2022/01/04 05:22:21;;;;;;;6.33;4.53;;;8.00;1.00;;;;;;5016768;28;20421;-74
2022/01/04 05:24:46;;;;;;;5.70;4.23;;;7.90;1.00;;;;;;5016076;28;20184;-74
2022/01/04 05:27:12;;;;;;;12.40;4.50;;;8.00;1.00;;;;;;5016470;28;20169;-74
2022/01/04 05:29:38;;;;;;;13.27;5.50;;;7.90;1.00;;;;;;5015090;28;20279;-74
2022/01/04 05:32:04;;;;;;;9.63;3.60;;;7.90;1.00;;;;;;4998591;28;20230;-74
2022/01/04 05:34:29;;;;;;;10.17;4.70;;;7.90;1.00;;;;;;5016132;28;20259;-75
2022/01/04 05:36:55;;;;;;;10.60;4.10;;;7.90;1.00;;;;;;5016389;28;20443;-75
2022/01/04 05:39:20;;;;;;;7.23;4.43;;;7.90;1.00;;;;;;5014794;28;20175;-74
2022/01/04 05:41:46;;;;;;;7.33;4.10;;;8.00;1.00;;;;;;5016175;28;20215;-75
2022/01/04 05:44:12;;;;;;;10.13;5.30;;;8.00;1.00;;;;;;5015741;28;20656;-75
2022/01/04 05:46:38;;;;;;;12.73;4.90;;;8.00;1.00;;;;;;5016398;28;20330;-74
2022/01/04 05:49:04;;;;;;;7.30;5.17;;;8.00;1.00;;;;;;5015036;28;20176;-75
2022/01/04 05:51:29;;;;;;;19.07;5.10;;;8.00;1.00;;;;;;5015944;28;20447;-74
2022/01/04 05:53:55;;;;;;;5.73;4.20;;;8.00;1.00;;;;;;4998101;28;20176;-75
2022/01/04 05:56:21;;;;;;;16.63;5.67;;;8.00;1.00;;;;;;5015863;28;20268;-75
2022/01/04 05:58:46;;;;;;;6.83;4.07;;;8.00;1.00;;;;;;4997217;28;20176;-75
2022/01/04 06:01:12;;;;;;;6.40;4.80;;;8.00;1.00;;;;;;5015744;28;20194;-74
2022/01/04 06:03:38;;;;;;;8.17;4.80;;;8.10;1.00;;;;;;5015475;28;20175;-74
2022/01/04 06:06:04;;;;;;;9.57;4.53;;;8.10;1.00;;;;;;5015633;28;20255;-75
2022/01/04 06:08:34;;;;;;;11.33;5.03;;;8.10;1.00;;;;;;5014778;28;20176;-76
2022/01/04 06:11:00;;;;;;;7.27;5.20;;;8.10;1.00;;;;;;4997932;28;20223;-75
2022/01/04 06:16:09;;;;;;;8.83;4.47;;;8.10;1.00;;;;;;5015333;28;20815;-75
2022/01/04 06:18:35;;;;;;;13.20;5.27;;;8.10;1.00;;;;;;4996907;28;20423;-75
2022/01/04 06:21:02;;;;;;;7.07;4.93;;;8.10;1.00;;;;;;5015475;28;20181;-74
2022/01/04 06:23:27;;;;;;;10.53;4.93;;;8.10;1.00;;;;;;5014957;28;20513;-74
2022/01/04 06:25:53;;;;;;;10.23;4.30;;;8.10;1.00;;;;;;5015298;28;20483;-75
2022/01/04 06:28:20;;;;;;;5.10;4.70;;;8.10;1.00;;;;;;5014875;28;20199;-75
2022/01/04 06:30:49;;;;;;;6.00;5.00;;;8.10;1.00;;;;;;4997030;28;20436;-75
2022/01/04 06:33:17;;;;;;;8.37;3.93;;;8.10;1.00;;;;;;4997579;28;20776;-75
2022/01/04 06:35:43;;;;;;;8.50;5.13;;;8.10;1.00;;;;;;5015029;28;20451;-75
2022/01/04 06:38:08;;;;;;;11.47;3.90;;;8.10;1.00;;;;;;5014517;28;20496;-75
2022/01/04 06:40:35;;;;;;;11.87;4.70;;;8.00;1.00;;;;;;5013943;28;20180;-76
2022/01/04 06:43:04;;;;;;;11.80;4.70;;;8.10;1.00;;;;;;5014547;28;20637;-76
2022/01/04 06:45:31;;;;;;;9.00;4.40;;;8.10;1.00;;;;;;4965833;28;20430;-76
2022/01/04 06:47:57;;;;;;;9.30;5.30;;;8.10;1.00;;;;;;5013811;28;20504;-74
2022/01/04 06:50:24;;;;;;;4.90;3.63;;;8.20;1.00;;;;;;4998818;28;20942;-75
2022/01/04 06:52:49;;;;;;;11.40;5.50;;;8.10;1.00;;;;;;4977751;28;20420;-76
2022/01/04 06:55:16;;;;;;;5.80;4.10;;;8.10;1.00;;;;;;5003662;28;20815;-74
2022/01/04 06:57:42;;;;;;;15.80;5.20;;;8.00;1.00;;;;;;5014573;28;20419;-74
2022/01/04 07:00:09;;;;;;;13.10;5.33;;;7.90;1.00;;;;;;5013515;28;20431;-75
2022/01/04 07:02:34;;;;;;;14.93;6.27;;;7.90;1.00;;;;;;5014598;28;20427;-76
2022/01/04 07:05:00;;;;;;;7.43;5.47;;;7.80;1.00;;;;;;5014380;28;20821;-76
2022/01/04 07:07:25;;;;;;;25.83;3.90;;;7.90;1.00;;;;;;4997186;28;20239;-73
2022/01/04 07:09:51;;;;;;;14.23;4.87;;;7.90;1.00;;;;;;5013215;28;20195;-75
2022/01/04 07:12:17;;;;;;;10.37;4.70;;;7.90;1.00;;;;;;4997203;28;20260;-75
2022/01/04 07:14:42;;;;;;;11.87;4.60;;;7.90;1.00;;;;;;5014143;28;20173;-75
2022/01/04 07:17:08;;;;;;;11.77;6.33;;;7.90;1.00;;;;;;5014003;28;20204;-74
2022/01/04 07:19:34;;;;;;;13.07;4.83;;;7.80;1.00;;;;;;4995781;28;20541;-74
2022/01/04 07:21:59;;;;;;;11.70;5.67;;;7.80;1.00;;;;;;5014153;28;20176;-74
2022/01/04 07:24:25;;;;;;;7.17;4.93;;;7.80;1.00;;;;;;5014105;28;20172;-74
2022/01/04 07:26:51;;;;;;;4.43;4.03;;;7.80;1.00;;;;;;5013822;28;20210;-74
2022/01/04 07:29:17;;;;;;;7.53;4.50;;;7.80;1.00;;;;;;5013324;28;20267;-74
2022/01/04 07:31:43;;;;;;;9.70;5.13;;;7.80;1.00;;;;;;5013841;28;20549;-74
2022/01/04 07:34:08;;;;;;;5.83;5.00;;;7.80;1.00;;;;;;5014159;28;20191;-74
2022/01/04 07:36:34;;;;;;;9.07;5.80;;;7.90;1.00;;;;;;4996152;28;20458;-75
2022/01/04 07:39:00;;;;;;;13.63;5.40;;;7.80;1.00;;;;;;5013051;28;20675;-75
2022/01/04 07:41:26;;;;;;;10.60;4.80;;;7.80;1.00;;;;;;5013753;28;20522;-74
2022/01/04 07:43:52;;;;;;;11.60;6.17;;;7.80;1.00;;;;;;5014007;28;20168;-74
2022/01/04 07:46:18;;;;;;;12.77;5.63;;;7.80;1.00;;;;;;5013837;28;20423;-75
2022/01/04 07:48:45;;;;;;;9.33;6.03;;;7.80;1.00;;;;;;5013077;28;20911;-75
2022/01/04 07:51:11;;;;;;;11.50;5.13;;;7.80;1.00;;;;;;5013151;28;20818;-75
2022/01/04 07:53:37;;;;;;;12.43;4.60;;;7.80;1.00;;;;;;5012885;28;20815;-75
2022/01/04 07:56:03;;;;;;;11.87;6.80;;;7.80;1.00;;;;;;5019477;28;20509;-75
2022/01/04 07:58:29;;;;;;;7.73;4.43;;;7.80;1.00;;;;;;5013139;28;20211;-77
2022/01/04 08:00:55;;;;;;;14.00;6.50;;;7.80;1.00;;;;;;5013076;28;20200;-75
2022/01/04 08:03:20;;;;;;;6.67;5.10;;;7.90;1.00;;;;;;5013480;28;20419;-75
2022/01/04 08:05:46;;;;;;;16.67;6.17;;;7.80;1.00;;;;;;5013304;28;20206;-75
2022/01/04 08:08:13;;;;;;;14.90;6.53;;;7.90;1.00;;;;;;4996095;28;20415;-75
2022/01/04 08:10:39;;;;;;;10.93;5.80;;;7.90;1.00;;;;;;4995095;28;20257;-74
2022/01/04 08:13:04;;;;;;;8.77;5.60;;;7.90;1.00;;;;;;5013603;28;20760;-75
2022/01/04 08:15:30;;;;;;;7.97;5.33;;;7.90;1.00;;;;;;5013474;28;20198;-75
2022/01/04 08:17:56;;;;;;;14.83;6.23;;;7.90;1.00;;;;;;5013697;28;20199;-75
2022/01/04 08:20:22;;;;;;;8.13;5.27;;;7.80;1.00;;;;;;5012673;28;20637;-74
2022/01/04 08:22:48;;;;;;;13.40;5.73;;;7.80;1.00;;;;;;5013500;28;20406;-75
2022/01/04 08:25:13;;;;;;;17.03;6.37;;;7.80;1.00;;;;;;5013425;28;20234;-76
2022/01/04 08:27:39;;;;;;;14.17;5.37;;;7.80;1.00;;;;;;5013463;28;20669;-75
2022/01/04 08:30:07;;;;;;;12.17;6.73;;;7.80;1.00;;;;;;5012527;28;20184;-74
2022/01/04 08:32:33;;;;;;;7.03;5.33;;;7.80;1.00;;;;;;4995690;28;20497;-75
2022/01/04 08:34:59;;;;;;;6.37;5.70;;;7.80;1.00;;;;;;5013334;28;20883;-75
2022/01/04 08:37:26;;;;;;;8.67;4.70;;;7.80;1.00;;;;;;5017063;28;20410;-75
2022/01/04 08:39:53;;;;;;;16.10;6.60;;;7.80;1.00;;;;;;5016470;28;20488;-74
2022/01/04 08:42:22;;;;;;;11.17;5.80;;;7.90;1.00;;;;;;4999933;28;20411;-74
2022/01/04 08:44:51;;;;;;;16.70;5.67;;;7.80;1.00;;;;;;5017270;28;20880;-74
2022/01/04 08:47:17;;;;;;;16.27;6.70;;;7.80;1.00;;;;;;5017231;28;20469;-76
2022/01/04 08:49:43;;;;;;;12.70;5.60;;;7.80;1.00;;;;;;5015885;28;20427;-74
2022/01/04 08:52:09;;;;;;;9.63;5.10;;;7.90;1.00;;;;;;5016987;28;20430;-75
2022/01/04 08:54:35;;;;;;;9.43;6.60;;;7.90;1.00;;;;;;5017010;28;20204;-76
2022/01/04 08:57:02;;;;;;;6.43;4.50;;;7.90;1.00;;;;;;4999420;28;20295;-75
2022/01/04 08:59:28;;;;;;;13.73;5.57;;;7.80;1.00;;;;;;5016028;28;20453;-76
2022/01/04 09:01:56;;;;;;;5.20;4.30;;;7.90;1.00;;;;;;5016795;28;20409;-74
2022/01/04 09:04:21;;;;;;;4.60;3.80;;;7.80;1.00;;;;;;5016839;28;20407;-74
2022/01/04 09:06:48;;;;;;;8.80;5.27;;;7.80;1.00;;;;;;5016987;28;20448;-74
2022/01/04 09:09:14;;;;;;;4.33;4.03;;;7.80;1.00;;;;;;5015858;28;20175;-75
2022/01/04 09:11:39;;;;;;;4.43;4.00;;;7.90;1.00;;;;;;5016559;28;20431;-74
2022/01/04 09:14:39;;;;;;;10.23;4.77;;;7.90;1.00;;;;;;5016719;28;20880;-74
2022/01/04 09:19:35;;;;;;;5.10;4.70;;;7.90;1.00;;;;;;5015509;28;20402;-75
2022/01/04 09:22:02;;;;;;;10.10;5.03;;;7.90;1.00;;;;;;5016520;28;20403;-76
2022/01/04 09:24:28;;;;;;;6.77;5.17;;;7.90;1.00;;;;;;5016723;28;20179;-75
2022/01/04 09:26:55;;;;;;;8.87;4.40;;;7.90;1.00;;;;;;5016519;28;20414;-74
2022/01/04 09:29:21;;;;;;;10.20;5.30;;;7.90;1.00;;;;;;5015517;28;20415;-74
2022/01/04 09:31:53;;;;;;;10.33;4.57;;;7.90;1.00;;;;;;5016162;28;20484;-75
2022/01/04 09:34:19;;;;;;;4.80;3.70;;;7.90;1.00;;;;;;5016274;28;20891;-74
2022/01/04 09:36:45;;;;;;;8.10;5.00;;;7.90;1.00;;;;;;5016319;28;20502;-75
2022/01/04 09:39:18;;;;;;;12.53;6.07;;;7.90;1.00;;;;;;5015249;28;20865;-74
2022/01/04 09:41:44;;;;;;;6.40;5.13;;;7.90;1.00;;;;;;5015941;28;20192;-75
2022/01/04 09:44:11;;;;;;;11.90;5.07;;;7.90;1.00;;;;;;4998433;28;20820;-75
2022/01/04 09:46:38;;;;;;;10.60;5.67;;;7.90;1.00;;;;;;5015654;28;20545;-74
2022/01/04 09:49:04;;;;;;;11.80;4.80;;;7.80;1.00;;;;;;5014437;28;20824;-73
2022/01/04 09:51:31;;;;;;;10.17;5.23;;;7.80;1.00;;;;;;5015676;28;20458;-74
2022/01/04 09:53:56;;;;;;;6.67;4.93;;;7.80;1.00;;;;;;5015800;28;20493;-75
2022/01/04 09:56:22;;;;;;;8.23;5.60;;;7.80;1.00;;;;;;5015818;28;20876;-75
2022/01/04 09:58:48;;;;;;;8.73;5.27;;;7.90;1.00;;;;;;4997530;28;20184;-75
2022/01/04 10:01:24;;;;;;;8.27;4.90;;;7.90;1.00;;;;;;5015790;28;20188;-75
2022/01/04 10:03:50;;;;;;;7.93;4.93;;;7.90;1.00;;;;;;4998369;28;20232;-74
2022/01/04 10:06:16;;;;;;;18.00;7.97;;;7.90;1.00;;;;;;5015765;28;20403;-74
2022/01/04 10:09:08;;;;;;;7.67;6.30;;;7.90;1.00;;;;;;5014777;28;20472;-75
2022/01/04 10:11:42;;;;;;;9.83;6.83;;;7.90;1.00;;;;;;5015496;28;20784;-74
2022/01/04 10:14:28;;;;;;;9.47;5.83;;;7.90;1.00;;;;;;5015515;28;20410;-75
2022/01/04 10:16:56;;;;;;;15.50;6.60;;;7.90;1.00;;;;;;5015502;28;20455;-75
2022/01/04 10:19:32;;;;;;;10.37;7.40;;;7.90;1.00;;;;;;5014539;28;20426;-74
2022/01/04 10:22:15;;;;;;;13.07;5.77;;;7.90;1.00;;;;;;5015247;28;20868;-76
2022/01/04 10:24:42;;;;;;;12.17;6.97;;;7.90;1.00;;;;;;4990152;28;20876;-72
2022/01/04 10:27:22;;;;;;;10.67;6.37;;;8.00;1.00;;;;;;5013720;28;20434;-75
2022/01/04 10:29:48;;;;;;;9.03;5.97;;;7.90;1.00;;;;;;5014021;28;20441;-74
2022/01/04 10:32:14;;;;;;;5.40;4.90;;;7.90;1.00;;;;;;5000353;28;20769;-72
2022/01/04 10:34:49;;;;;;;11.20;5.70;;;7.90;1.00;;;;;;4995585;28;20202;-72
2022/01/04 10:37:36;;;;;;;11.07;4.87;;;7.90;1.00;;;;;;4995375;28;20447;-71
2022/01/04 10:40:07;;;;;;;9.20;5.53;;;7.90;1.00;;;;;;5008408;28;20438;-75
2022/01/04 10:42:33;;;;;;;12.30;6.03;;;7.90;1.00;;;;;;5014665;28;20404;-70
2022/01/04 10:44:59;;;;;;;9.97;6.53;;;7.90;1.00;;;;;;5014628;28;21030;-73
2022/01/04 10:47:27;;;;;;;5.50;4.43;;;7.90;1.00;;;;;;4996939;28;20176;-73
2022/01/04 10:49:53;;;;;;;4.77;3.80;;;7.90;1.00;;;;;;5013330;28;20505;-74
2022/01/04 10:52:22;;;;;;;8.93;5.70;;;7.90;1.00;;;;;;5013678;28;20482;-70
2022/01/04 10:55:12;;;;;;;8.53;4.73;;;7.90;1.00;;;;;;5014569;28;20160;-68
2022/01/04 10:57:37;;;;;;;10.47;4.87;;;7.80;1.00;;;;;;5014376;28;20409;-74
2022/01/04 11:00:20;;;;;;;2.47;2.20;;;7.70;1.00;;;;;;5013212;28;20431;-72
2022/01/04 11:02:46;;;;;;;2.17;1.90;;;7.40;1.00;;;;;;5014784;28;20172;-70
2022/01/04 11:05:16;;;;;;;1.50;1.40;;;7.30;1.00;;;;;;5014682;28;20403;-70
2022/01/04 11:08:01;;;;;;;1.30;1.20;;;7.30;1.00;;;;;;5014697;28;20471;-72
2022/01/04 11:10:29;;;;;;;2.27;1.83;;;7.20;1.00;;;;;;5013510;28;20411;-70
2022/01/04 11:12:58;;;;;;;3.73;2.17;;;7.20;1.00;;;;;;5014397;28;20403;-70
2022/01/04 11:15:27;;;;;;;2.03;1.63;;;7.20;1.00;;;;;;5014451;28;20462;-70
2022/01/04 11:17:55;;;;;;;1.77;1.60;;;7.20;1.00;;;;;;5014556;28;20480;-73
2022/01/04 11:20:21;;;;;;;8.23;1.63;;;7.20;1.00;;;;;;5013653;28;20811;-71
2022/01/04 11:22:49;;;;;;;3.63;1.77;;;7.20;1.00;;;;;;5014089;28;20415;-73
2022/01/04 11:25:16;;;;;;;1.40;1.30;;;7.10;1.00;;;;;;5014433;28;20394;-71
2022/01/04 11:27:43;;;;;;;1.67;1.57;;;7.00;1.00;;;;;;5014316;28;20804;-73
2022/01/04 11:30:50;;;;;;;2.37;2.27;;;7.00;1.00;;;;;;5013210;28;20807;-74
2022/01/04 11:33:43;;;;;;;1.70;1.60;;;7.00;1.00;;;;;;5013406;28;20991;-73
2022/01/04 11:36:12;;;;;;;1.80;1.70;;;6.90;1.00;;;;;;4996614;28;20682;-73
2022/01/04 11:38:39;;;;;;;2.00;1.90;;;6.90;1.00;;;;;;4995620;28;20467;-73
2022/01/04 11:41:05;;;;;;;2.60;2.30;;;7.00;1.00;;;;;;4996580;28;20474;-73
2022/01/04 11:43:38;;;;;;;1.90;1.80;;;6.90;1.00;;;;;;5013981;28;20177;-70
2022/01/04 11:46:04;;;;;;;2.13;2.03;;;6.80;1.00;;;;;;5014053;28;20477;-70
2022/01/04 11:48:40;;;;;;;1.70;1.60;;;6.50;1.00;;;;;;5013176;28;20452;-78
2022/01/04 11:51:08;;;;;;;1.73;1.63;;;6.20;1.00;;;;;;5013645;28;20513;-73
2022/01/04 11:53:35;;;;;;;8.17;1.47;;;6.10;1.00;;;;;;5014047;28;20403;-71
2022/01/04 11:56:08;;;;;;;1.40;1.30;;;5.90;1.00;;;;;;5013937;28;20455;-73
2022/01/04 11:58:44;;;;;;;1.80;1.70;;;5.90;1.00;;;;;;5013010;28;20403;-71
2022/01/04 12:01:11;;;;;;;1.33;1.23;;;5.80;1.00;;;;;;5013574;28;20433;-74
2022/01/04 12:03:42;;;;;;;1.37;1.27;;;5.60;1.00;;;;;;5013828;28;20411;-70
2022/01/04 12:06:09;;;;;;;1.40;1.30;;;5.40;1.00;;;;;;5013872;28;20464;-70
2022/01/04 12:08:44;;;;;;;3.13;1.97;;;5.40;1.00;;;;;;5012842;28;20454;-71
2022/01/04 12:11:42;;;;;;;1.93;1.83;;;5.40;1.00;;;;;;4995399;28;20546;-70
2022/01/04 12:14:27;;;;;;;1.40;1.30;;;5.50;1.00;;;;;;4970621;28;20513;-70
2022/01/04 12:17:07;;;;;;;1.73;1.50;;;5.60;1.00;;;;;;5013434;28;20454;-71
2022/01/04 12:19:50;;;;;;;1.60;1.50;;;5.50;1.00;;;;;;5012534;28;20435;-70
2022/01/04 12:22:38;;;;;;;1.30;1.20;;;5.40;1.00;;;;;;4995912;28;20422;-72
2022/01/04 12:25:08;;;;;;;4.40;1.70;;;5.40;1.00;;;;;;5013444;28;20414;-71
2022/01/04 12:27:34;;;;;;;4.30;1.60;;;5.50;1.00;;;;;;5013979;28;20471;-73
2022/01/04 12:30:36;;;;;;;1.83;1.73;;;5.50;1.00;;;;;;5012605;28;20429;-71
2022/01/04 12:33:34;;;;;;;1.57;1.47;;;5.40;1.00;;;;;;5013429;28;20181;-73
2022/01/04 12:35:59;;;;;;;2.43;1.80;;;5.50;1.00;;;;;;5013407;28;20454;-70
2022/01/04 12:38:25;;;;;;;2.70;1.50;;;5.50;1.00;;;;;;5013212;28;20411;-70
2022/01/04 12:40:52;;;;;;;1.70;1.60;;;5.50;1.00;;;;;;5012610;28;20288;-72
2022/01/04 12:43:18;;;;;;;1.63;1.53;;;5.60;1.00;;;;;;5013240;28;20396;-71
2022/01/04 12:45:54;;;;;;;2.07;1.87;;;5.50;1.00;;;;;;5013502;28;20468;-73
2022/01/04 12:48:40;;;;;;;2.70;2.13;;;5.30;1.00;;;;;;5013241;28;20200;-73
2022/01/04 12:51:29;;;;;;;1.50;1.40;;;5.20;1.00;;;;;;5013024;28;20486;-71
2022/01/04 12:54:00;;;;;;;1.67;1.57;;;5.20;1.00;;;;;;5013349;28;20420;-73
2022/01/04 12:56:28;;;;;;;1.90;1.80;;;5.20;1.00;;;;;;4995772;28;20451;-72
2022/01/04 12:58:58;;;;;;;1.70;1.60;;;5.20;1.00;;;;;;5012404;28;20407;-71
2022/01/04 13:01:29;;;;;;;2.00;1.90;;;5.10;1.00;;;;;;4995391;28;20792;-73
2022/01/04 13:03:56;;;;;;;1.73;1.63;;;5.20;1.00;;;;;;4995696;28;20424;-72
2022/01/04 13:06:22;;;;;;;3.50;2.10;;;5.40;1.00;;;;;;4995763;28;20403;-73
2022/01/04 13:09:02;;;;;;;2.27;1.73;;;5.40;1.00;;;;;;5012458;28;20471;-71
2022/01/04 13:11:28;;;;;;;2.27;2.07;;;5.50;1.00;;;;;;5013088;28;20245;-73
2022/01/04 13:13:55;;;;;;;1.70;1.60;;;5.60;1.00;;;;;;5013159;28;20446;-72
2022/01/04 13:16:29;;;;;;;1.47;1.37;;;5.70;1.00;;;;;;5013117;28;20200;-74